Crescent City, Florida
Current Conditions -  °F | °C
As of 4:35 PM on Saturday 20 Dec 2014 (Local Time) from K28J Reporting Station
Broken Clouds Broken Clouds  
Wind Chill: 68°   Ceiling: 5000
Heat Index: 68°   Visibility: 10mi
Dew Point: 59°   Wind: 8mph
Humidity: 73%   Direction: 60°ENE
Pressure: 30.07"   Gusts: NA
Location:  29.43°N, 81.51°W
Report Text: K28J 202135Z AUTO 06007KT 10SM FEW041 SCT048 BKN050 20/15 A3007 RMK AO2
Loading
Personal Weather Stations






























Interactive Weather Map New forecast layout! Learn more

10-Day Weather Forecast

Advertisements
Track Severe Weather on mobile